createdAt,value
2023-03-15T00:00:13.144Z,10.60
2023-03-15T00:03:06.691Z,11.20
2023-03-15T00:05:35.586Z,9.70
2023-03-15T00:08:05.297Z,10.50
2023-03-15T00:10:34.157Z,10.30
2023-03-15T00:13:03.451Z,9.40
2023-03-15T00:15:33.972Z,12.10
2023-03-15T00:18:03.545Z,8.40
2023-03-15T00:20:33.298Z,9.20
2023-03-15T00:23:02.373Z,10.40
2023-03-15T00:25:32.278Z,10.50
2023-03-15T00:28:01.262Z,10.60
2023-03-15T00:30:30.040Z,9.60
2023-03-15T00:32:59.649Z,11.80
2023-03-15T00:35:28.344Z,9.80
2023-03-15T00:37:57.495Z,11.70
2023-03-15T00:40:26.236Z,10.70
2023-03-15T00:45:02.905Z,7.80
2023-03-15T00:47:31.665Z,8.10
2023-03-15T00:50:00.324Z,6.60
2023-03-15T00:52:36.213Z,4.90
2023-03-15T00:55:05.778Z,3.00
2023-03-15T00:57:37.417Z,2.70
2023-03-15T01:00:09.126Z,2.30
2023-03-15T01:02:38.198Z,1.60
2023-03-15T01:05:08.824Z,0.80
2023-03-15T01:07:37.576Z,3.90
2023-03-15T01:10:07.661Z,0.80
2023-03-15T01:12:36.241Z,0.70
2023-03-15T01:15:12.330Z,1.90
2023-03-15T01:17:41.945Z,0.90
2023-03-15T01:20:14.854Z,1.60
2023-03-15T01:22:43.705Z,2.10
2023-03-15T01:25:12.301Z,1.30
2023-03-15T01:27:41.067Z,0.70
2023-03-15T01:30:10.473Z,1.20
2023-03-15T01:32:39.143Z,1.40
2023-03-15T01:35:08.265Z,1.30
2023-03-15T01:37:36.964Z,0.80
2023-03-15T01:40:06.882Z,2.20
2023-03-15T01:42:52.487Z,2.40
2023-03-15T01:45:58.921Z,1.40
2023-03-15T01:48:45.028Z,1.50
2023-03-15T01:51:22.747Z,1.00
2023-03-15T01:54:02.877Z,2.40
2023-03-15T01:56:34.495Z,2.50
2023-03-15T01:59:07.388Z,1.10
2023-03-15T02:01:37.645Z,1.30
2023-03-15T02:04:12.534Z,2.50
2023-03-15T02:06:47.128Z,1.80
2023-03-15T02:16:23.055Z,2.00
2023-03-15T02:18:52.164Z,2.80
2023-03-15T02:21:42.485Z,1.80
2023-03-15T02:24:33.749Z,2.40
2023-03-15T02:27:02.397Z,1.70
2023-03-15T02:29:31.473Z,1.40
2023-03-15T02:32:00.879Z,1.00
2023-03-15T02:34:29.731Z,1.70
2023-03-15T02:36:58.481Z,2.00
2023-03-15T02:39:27.563Z,5.70
2023-03-15T02:41:59.050Z,2.40
2023-03-15T02:44:32.951Z,2.40
2023-03-15T02:47:09.116Z,2.60
2023-03-15T02:49:43.237Z,3.10
2023-03-15T02:52:14.311Z,1.20
2023-03-15T02:54:46.111Z,2.70
2023-03-15T02:57:17.165Z,1.70
2023-03-15T02:59:46.043Z,3.10
2023-03-15T03:02:14.961Z,3.60
2023-03-15T03:04:51.014Z,3.20
2023-03-15T03:07:24.099Z,2.30
2023-03-15T03:09:53.018Z,2.60
2023-03-15T03:12:21.916Z,2.30
2023-03-15T03:14:51.513Z,4.60
2023-03-15T03:17:20.486Z,3.40
2023-03-15T03:19:49.178Z,2.30
2023-03-15T03:22:18.487Z,1.20
2023-03-15T03:24:47.422Z,1.50
2023-03-15T03:27:16.378Z,3.20
2023-03-15T03:29:45.340Z,3.30
2023-03-15T03:32:14.118Z,2.40
2023-03-15T03:34:48.774Z,4.80
2023-03-15T03:37:19.083Z,5.70
2023-03-15T03:40:08.210Z,1.50
2023-03-15T03:42:37.080Z,2.60
2023-03-15T03:45:06.222Z,2.70
2023-03-15T03:54:13.155Z,2.40
2023-03-15T03:56:41.991Z,4.20
2023-03-15T03:59:11.043Z,3.80
2023-03-15T04:01:41.992Z,3.30
2023-03-15T04:04:14.390Z,2.90
2023-03-15T04:06:46.281Z,4.20
2023-03-15T04:09:18.420Z,5.00
2023-03-15T04:11:46.961Z,4.70
2023-03-15T04:14:16.181Z,4.70
2023-03-15T04:16:44.988Z,4.40
2023-03-15T04:19:13.738Z,4.40
2023-03-15T04:21:47.801Z,5.40
2023-03-15T04:24:22.173Z,6.60
2023-03-15T04:26:58.180Z,4.50
2023-03-15T04:29:27.010Z,8.40
2023-03-15T04:32:01.983Z,5.00
2023-03-15T04:34:31.785Z,3.60
2023-03-15T04:37:00.373Z,6.80
2023-03-15T04:39:28.974Z,5.20
2023-03-15T04:41:57.714Z,5.90
2023-03-15T04:44:27.061Z,5.50
2023-03-15T04:46:56.272Z,5.70
2023-03-15T04:49:25.056Z,7.30
2023-03-15T04:51:53.668Z,5.80
2023-03-15T04:54:23.611Z,6.60
2023-03-15T04:56:52.497Z,7.70
2023-03-15T04:59:20.988Z,5.90
2023-03-15T05:01:50.024Z,9.10
2023-03-15T05:04:19.769Z,6.90
2023-03-15T05:06:48.444Z,6.20
2023-03-15T05:09:19.497Z,6.30
2023-03-15T05:11:48.313Z,8.70
2023-03-15T05:14:17.098Z,10.10
2023-03-15T05:16:47.855Z,8.30
2023-03-15T05:19:16.579Z,8.20
2023-03-15T05:21:45.206Z,10.10
2023-03-15T05:24:14.802Z,8.80
2023-03-15T05:26:46.679Z,7.90
2023-03-15T05:29:16.126Z,10.00
2023-03-15T05:31:44.808Z,8.90
2023-03-15T05:34:13.517Z,9.30
2023-03-15T05:36:44.933Z,5.40
2023-03-15T05:39:16.973Z,7.20
2023-03-15T05:41:45.768Z,5.10
2023-03-15T05:44:14.944Z,7.70
2023-03-15T05:46:44.558Z,6.90
2023-03-15T05:49:13.632Z,10.10
2023-03-15T05:51:43.045Z,7.20
2023-03-15T05:54:12.172Z,5.60
2023-03-15T05:56:41.579Z,8.50
2023-03-15T05:59:11.165Z,7.50
2023-03-15T06:01:43.126Z,7.10
2023-03-15T06:04:12.467Z,8.60
2023-03-15T06:06:41.764Z,8.30
2023-03-15T06:09:11.205Z,9.00
2023-03-15T06:11:43.658Z,8.30
2023-03-15T06:14:12.423Z,6.40
2023-03-15T06:16:41.579Z,8.10
2023-03-15T06:19:10.568Z,8.80
2023-03-15T06:21:42.714Z,8.90
2023-03-15T06:24:11.934Z,7.40
2023-03-15T06:26:41.036Z,8.10
2023-03-15T06:29:14.943Z,7.70
2023-03-15T06:31:44.670Z,10.40
2023-03-15T06:34:13.684Z,12.00
2023-03-15T06:36:45.902Z,9.70
2023-03-15T06:39:15.535Z,7.90
2023-03-15T06:41:44.599Z,7.50
2023-03-15T06:44:13.827Z,7.20
2023-03-15T06:46:43.015Z,6.50
2023-03-15T06:49:11.930Z,12.00
2023-03-15T06:51:43.125Z,11.40
2023-03-15T06:54:12.277Z,9.10
2023-03-15T06:56:41.670Z,7.90
2023-03-15T06:59:13.303Z,9.30
2023-03-15T07:01:42.882Z,8.90
2023-03-15T07:04:12.183Z,11.90
2023-03-15T07:06:43.706Z,10.80
2023-03-15T07:09:31.762Z,9.80
2023-03-15T07:12:01.891Z,11.40
2023-03-15T07:17:01.776Z,14.10
2023-03-15T07:19:32.764Z,11.50
2023-03-15T07:22:01.885Z,12.10
2023-03-15T07:24:33.167Z,7.60
2023-03-15T07:27:02.519Z,8.70
2023-03-15T07:29:33.264Z,11.30
2023-03-15T07:32:02.118Z,8.80
2023-03-15T07:34:31.509Z,10.00
2023-03-15T07:37:19.452Z,9.80
2023-03-15T07:40:09.910Z,10.40
2023-03-15T07:48:59.910Z,12.70
2023-03-15T07:51:29.386Z,9.10
2023-03-15T07:53:59.223Z,10.80
2023-03-15T07:56:28.325Z,12.10
2023-03-15T07:58:57.066Z,11.40
2023-03-15T08:01:26.565Z,10.10
2023-03-15T08:03:55.418Z,8.60
2023-03-15T08:06:24.740Z,10.70
2023-03-15T08:08:53.328Z,6.80
2023-03-15T08:18:01.136Z,12.10
2023-03-15T08:20:30.838Z,9.50
2023-03-15T08:22:59.948Z,11.40
2023-03-15T08:25:28.865Z,9.70
2023-03-15T08:27:57.863Z,7.60
2023-03-15T08:30:29.683Z,6.60
2023-03-15T08:32:58.881Z,7.80
2023-03-15T08:35:28.400Z,6.70
2023-03-15T08:37:57.234Z,7.70
2023-03-15T08:40:25.856Z,10.00
2023-03-15T08:42:58.448Z,9.20
2023-03-15T08:45:28.293Z,4.60
2023-03-15T08:47:59.047Z,6.10
2023-03-15T08:59:31.725Z,9.20
2023-03-15T09:02:01.708Z,7.70
2023-03-15T09:04:30.778Z,8.30
2023-03-15T09:06:59.329Z,7.30
2023-03-15T09:09:27.962Z,8.30
2023-03-15T09:11:56.818Z,9.30
2023-03-15T09:14:25.170Z,9.60
2023-03-15T09:16:53.631Z,9.80
2023-03-15T09:19:22.251Z,9.70
2023-03-15T09:21:51.490Z,9.00
2023-03-15T09:24:20.188Z,10.50
2023-03-15T09:26:48.540Z,13.00
2023-03-15T09:29:17.037Z,7.70
2023-03-15T09:31:45.610Z,7.70
2023-03-15T09:34:14.386Z,8.40
2023-03-15T09:36:42.736Z,5.80
2023-03-15T09:39:11.487Z,8.60
2023-03-15T09:41:50.054Z,7.40
2023-03-15T09:44:42.462Z,7.60
2023-03-15T09:47:10.993Z,7.70
2023-03-15T09:49:47.572Z,7.60
2023-03-15T09:52:33.897Z,8.60
2023-03-15T09:55:15.239Z,8.80
2023-03-15T09:57:57.106Z,9.70
2023-03-15T10:00:41.317Z,9.10
2023-03-15T10:03:21.926Z,9.40
2023-03-15T10:05:58.033Z,7.30
2023-03-15T10:08:28.270Z,7.30
2023-03-15T10:11:06.094Z,8.00
2023-03-15T10:13:59.105Z,7.60
2023-03-15T10:16:50.702Z,6.70
2023-03-15T10:19:52.795Z,9.30
2023-03-15T10:23:02.605Z,6.10
2023-03-15T10:25:33.434Z,8.40
2023-03-15T10:28:09.953Z,9.50
2023-03-15T10:30:42.699Z,9.40
2023-03-15T10:33:34.835Z,6.50
2023-03-15T10:36:19.008Z,8.70
2023-03-15T10:38:49.598Z,7.70
2023-03-15T10:41:44.855Z,5.70
2023-03-15T10:44:23.611Z,7.80
2023-03-15T10:47:22.511Z,7.00
2023-03-15T10:49:59.756Z,5.30
2023-03-15T10:52:40.143Z,7.40
2023-03-15T10:55:21.547Z,9.60
2023-03-15T10:57:56.653Z,7.80
2023-03-15T11:00:32.322Z,8.10
2023-03-15T11:03:08.133Z,6.70
2023-03-15T11:05:46.734Z,8.80
2023-03-15T11:08:18.781Z,7.70
2023-03-15T11:10:56.462Z,6.90
2023-03-15T11:13:28.342Z,8.50
2023-03-15T11:16:22.176Z,6.20
2023-03-15T11:19:02.159Z,12.40
2023-03-15T11:21:33.910Z,8.40
2023-03-15T11:24:06.119Z,9.40
2023-03-15T11:26:39.966Z,7.00
2023-03-15T11:29:18.618Z,9.80
2023-03-15T11:31:47.462Z,11.60
2023-03-15T11:34:30.541Z,7.70
2023-03-15T11:37:08.517Z,6.20
2023-03-15T11:40:05.003Z,7.80
2023-03-15T11:42:59.596Z,6.20
2023-03-15T11:46:09.185Z,8.40
2023-03-15T11:49:22.705Z,5.90
2023-03-15T11:51:51.809Z,10.00
2023-03-15T11:54:31.215Z,6.10
2023-03-15T11:57:07.012Z,6.10
2023-03-15T11:59:38.713Z,7.10
2023-03-15T12:02:10.841Z,8.10
2023-03-15T12:04:46.233Z,6.60
2023-03-15T12:07:24.142Z,8.60
2023-03-15T12:10:02.775Z,5.20
2023-03-15T12:12:31.108Z,8.80
2023-03-15T12:15:15.063Z,8.70
2023-03-15T12:17:58.509Z,8.20
2023-03-15T12:20:39.382Z,9.00
2023-03-15T12:23:31.357Z,7.20
2023-03-15T12:26:07.353Z,5.60
2023-03-15T12:28:41.594Z,5.70
2023-03-15T12:31:13.687Z,6.70
2023-03-15T12:33:58.825Z,6.60
2023-03-15T12:36:30.815Z,7.70
2023-03-15T12:39:10.335Z,3.50
2023-03-15T12:41:41.762Z,7.90
2023-03-15T12:44:22.459Z,8.10
2023-03-15T12:46:50.805Z,7.30
2023-03-15T12:49:25.106Z,6.40
2023-03-15T12:51:58.184Z,10.00
2023-03-15T12:55:14.095Z,8.10
2023-03-15T12:57:54.252Z,11.00
2023-03-15T13:00:25.607Z,7.00
2023-03-15T13:03:04.416Z,6.30
2023-03-15T13:05:47.064Z,8.20
2023-03-15T13:08:24.039Z,9.90
2023-03-15T13:11:01.465Z,7.20
2023-03-15T13:14:20.954Z,4.80
2023-03-15T13:17:17.525Z,5.90
2023-03-15T13:19:50.542Z,9.60
2023-03-15T13:22:41.280Z,9.60
2023-03-15T13:25:25.805Z,5.70
2023-03-15T13:28:12.477Z,8.20
2023-03-15T13:30:47.276Z,8.50
2023-03-15T13:33:27.722Z,9.10
2023-03-15T13:36:01.302Z,8.60
2023-03-15T13:38:57.881Z,9.30
2023-03-15T13:41:31.138Z,7.90
2023-03-15T13:44:05.397Z,7.70
2023-03-15T13:46:33.860Z,5.30
2023-03-15T13:49:02.268Z,9.00
2023-03-15T13:51:33.607Z,6.00
2023-03-15T13:54:24.986Z,6.10
2023-03-15T13:57:17.403Z,7.60
2023-03-15T13:59:52.934Z,9.30
2023-03-15T14:02:28.071Z,8.10
2023-03-15T14:05:10.461Z,4.40
2023-03-15T14:07:45.757Z,7.30
2023-03-15T14:10:40.129Z,3.60
2023-03-15T14:13:25.911Z,11.40
2023-03-15T14:16:02.110Z,6.80
2023-03-15T14:18:42.988Z,5.30
2023-03-15T14:21:22.236Z,9.80
2023-03-15T14:23:51.017Z,9.70
2023-03-15T14:26:23.784Z,7.80
2023-03-15T14:29:00.168Z,9.20
2023-03-15T14:31:35.834Z,8.50
2023-03-15T14:34:33.791Z,11.00
2023-03-15T14:37:10.110Z,8.70
2023-03-15T14:39:42.024Z,8.20
2023-03-15T14:42:13.655Z,9.60
2023-03-15T14:44:42.135Z,8.00
2023-03-15T14:53:46.909Z,10.70
2023-03-15T14:56:16.501Z,7.60
2023-03-15T14:58:45.722Z,11.60
2023-03-15T15:01:20.680Z,10.20
2023-03-15T15:04:00.093Z,11.10
2023-03-15T15:06:32.138Z,7.20
2023-03-15T15:09:01.749Z,6.50
2023-03-15T15:11:30.427Z,8.00
2023-03-15T15:13:59.140Z,8.50
2023-03-15T15:16:28.584Z,7.50
2023-03-15T15:18:57.121Z,6.80
2023-03-15T15:21:31.792Z,6.70
2023-03-15T15:24:05.036Z,8.30
2023-03-15T15:26:34.718Z,7.60
2023-03-15T15:29:03.334Z,7.80
2023-03-15T15:31:34.660Z,7.50
2023-03-15T15:34:03.278Z,8.10
2023-03-15T15:36:35.865Z,10.70
2023-03-15T15:39:11.462Z,7.90
2023-03-15T15:41:40.150Z,7.80
2023-03-15T15:44:16.323Z,7.30
2023-03-15T15:46:44.811Z,7.80
2023-03-15T15:49:13.861Z,8.70
2023-03-15T15:51:51.720Z,6.70
2023-03-15T15:54:24.597Z,9.80
2023-03-15T15:57:00.939Z,9.90
2023-03-15T15:59:30.987Z,12.80
2023-03-15T16:02:01.524Z,9.10
2023-03-15T16:04:31.195Z,7.40
2023-03-15T16:07:02.698Z,6.90
2023-03-15T16:09:36.256Z,8.30
2023-03-15T16:12:13.337Z,7.00
2023-03-15T16:14:42.128Z,11.20
2023-03-15T16:17:18.550Z,8.30
2023-03-15T16:19:48.033Z,7.30
2023-03-15T16:22:21.995Z,10.60
2023-03-15T16:24:53.897Z,8.30
2023-03-15T16:27:26.198Z,9.30
2023-03-15T16:29:56.093Z,9.70
2023-03-15T16:32:37.247Z,7.40
2023-03-15T16:35:16.603Z,10.20
2023-03-15T16:37:46.916Z,9.80
2023-03-15T16:40:26.927Z,8.80
2023-03-15T16:42:56.294Z,10.00
2023-03-15T16:45:25.447Z,7.70
2023-03-15T16:47:56.661Z,7.10
2023-03-15T16:50:25.427Z,7.40
2023-03-15T16:52:57.340Z,11.30
2023-03-15T16:55:29.147Z,8.70
2023-03-15T16:57:57.950Z,7.70
2023-03-15T17:00:26.417Z,8.80
2023-03-15T17:02:55.099Z,6.30
2023-03-15T17:05:24.945Z,8.00
2023-03-15T17:07:55.465Z,9.60
2023-03-15T17:13:01.119Z,7.30
2023-03-15T17:15:30.964Z,6.70
2023-03-15T17:18:00.757Z,7.60
2023-03-15T17:20:30.235Z,11.80
2023-03-15T17:23:04.969Z,9.80
2023-03-15T17:25:34.952Z,8.20
2023-03-15T17:28:05.704Z,7.80
2023-03-15T17:30:36.926Z,9.00
2023-03-15T17:33:06.954Z,11.00
2023-03-15T17:38:18.072Z,6.00
2023-03-15T17:40:49.163Z,7.50
2023-03-15T17:43:22.269Z,9.70
2023-03-15T17:45:52.626Z,10.80
2023-03-15T17:48:21.224Z,9.60
2023-03-15T17:50:50.562Z,14.00
2023-03-15T17:53:22.235Z,9.00
2023-03-15T17:55:53.908Z,12.60
2023-03-15T17:58:25.170Z,9.00
2023-03-15T18:05:21.339Z,9.50
2023-03-15T18:07:58.541Z,12.30
2023-03-15T18:10:37.219Z,12.60
2023-03-15T18:13:06.082Z,15.90
2023-03-15T18:15:34.563Z,12.50
2023-03-15T18:18:06.142Z,12.90
2023-03-15T18:20:35.568Z,13.80
2023-03-15T18:23:05.567Z,14.30
2023-03-15T18:25:35.851Z,12.60
2023-03-15T18:28:04.780Z,12.10
2023-03-15T18:30:34.007Z,13.20
2023-03-15T18:33:04.744Z,13.20
2023-03-15T18:35:36.674Z,17.80
2023-03-15T18:38:06.082Z,14.10
2023-03-15T18:40:35.222Z,12.80
2023-03-15T18:43:05.994Z,12.50
2023-03-15T18:45:36.472Z,36.70
2023-03-15T18:50:34.871Z,25.70
2023-03-15T18:53:06.408Z,27.70
2023-03-15T18:55:39.056Z,25.70
2023-03-15T18:58:15.310Z,28.30
2023-03-15T19:00:44.731Z,28.50
2023-03-15T19:03:13.779Z,25.50
2023-03-15T19:05:43.029Z,21.30
2023-03-15T19:08:12.101Z,24.20
2023-03-15T19:13:15.234Z,25.20
2023-03-15T19:15:51.512Z,24.40
2023-03-15T19:18:20.090Z,24.70
2023-03-15T19:20:49.095Z,25.90
2023-03-15T19:23:20.841Z,28.10
2023-03-15T19:25:51.684Z,25.20
2023-03-15T19:28:22.777Z,22.40
2023-03-15T19:30:52.621Z,26.70
2023-03-15T19:33:24.120Z,28.60
2023-03-15T19:35:55.876Z,30.90
2023-03-15T19:38:36.512Z,29.90
2023-03-15T19:41:12.791Z,28.30
2023-03-15T19:43:43.936Z,29.50
2023-03-15T19:46:20.028Z,33.10
2023-03-15T19:48:56.267Z,32.40
2023-03-15T19:51:28.724Z,31.50
2023-03-15T19:56:29.090Z,29.00
2023-03-15T19:58:58.699Z,30.20
2023-03-15T20:01:28.002Z,29.50
2023-03-15T20:04:00.261Z,34.30
2023-03-15T20:06:31.368Z,34.50
2023-03-15T20:09:21.185Z,31.50
2023-03-15T20:11:50.103Z,34.00
2023-03-15T20:14:20.875Z,37.40
2023-03-15T20:16:50.306Z,31.50
2023-03-15T20:19:20.643Z,33.80
2023-03-15T20:26:19.152Z,34.80
2023-03-15T20:29:06.681Z,34.80
2023-03-15T20:31:39.555Z,36.60
2023-03-15T20:36:39.223Z,29.20
2023-03-15T20:39:08.460Z,35.50
2023-03-15T20:41:39.612Z,30.00
2023-03-15T20:44:10.091Z,32.70
2023-03-15T20:46:41.284Z,28.80
2023-03-15T20:49:11.993Z,30.00
2023-03-15T20:55:53.885Z,26.60
2023-03-15T20:58:25.622Z,28.00
2023-03-15T21:01:07.641Z,31.00
2023-03-15T21:03:37.649Z,31.00
2023-03-15T21:08:40.949Z,39.30
2023-03-15T21:11:10.495Z,33.00
2023-03-15T21:13:39.948Z,37.10
2023-03-15T21:16:10.190Z,34.90
2023-03-15T21:18:46.157Z,33.50
2023-03-15T21:21:15.855Z,38.70
2023-03-15T21:23:45.612Z,35.00
2023-03-15T21:26:15.984Z,35.60
2023-03-15T21:28:49.223Z,37.10
2023-03-15T21:31:18.451Z,32.80
2023-03-15T21:33:50.676Z,40.20
2023-03-15T21:36:20.892Z,36.70
2023-03-15T21:38:50.432Z,38.60
2023-03-15T21:45:45.262Z,37.10
2023-03-15T21:48:13.842Z,37.60
2023-03-15T21:50:43.649Z,37.10
2023-03-15T21:53:13.162Z,35.70
2023-03-15T21:55:42.562Z,44.70
2023-03-15T21:58:12.171Z,38.80
2023-03-15T22:00:43.263Z,41.30
2023-03-15T22:03:16.997Z,44.90
2023-03-15T22:05:49.219Z,48.70
2023-03-15T22:08:20.207Z,44.10
2023-03-15T22:10:59.244Z,48.30
2023-03-15T22:13:30.570Z,52.10
2023-03-15T22:16:02.258Z,47.90
2023-03-15T22:18:39.321Z,50.30
2023-03-15T22:21:11.204Z,47.70
2023-03-15T22:23:42.133Z,51.10
2023-03-15T22:28:35.580Z,53.50
2023-03-15T22:31:04.111Z,49.80
2023-03-15T22:33:32.513Z,53.50
2023-03-15T22:36:03.937Z,52.00
2023-03-15T22:38:38.222Z,51.50
2023-03-15T22:41:10.504Z,49.40
2023-03-15T22:43:39.235Z,52.90
2023-03-15T22:46:07.903Z,48.30
2023-03-15T22:48:36.489Z,49.40
2023-03-15T22:51:08.568Z,52.40
2023-03-15T22:53:37.100Z,53.00
2023-03-15T22:56:06.692Z,48.10
2023-03-15T22:58:35.857Z,46.90
2023-03-15T23:01:04.512Z,51.90
2023-03-15T23:03:33.253Z,43.00
2023-03-15T23:06:01.803Z,48.50
2023-03-15T23:08:30.198Z,42.70
2023-03-15T23:10:59.207Z,42.90
2023-03-15T23:13:27.676Z,40.50
2023-03-15T23:15:56.241Z,42.50
2023-03-15T23:18:24.719Z,43.90
2023-03-15T23:20:53.033Z,36.60
2023-03-15T23:23:22.191Z,42.30
2023-03-15T23:25:51.261Z,42.10
2023-03-15T23:28:22.240Z,39.80
2023-03-15T23:30:51.092Z,35.40
2023-03-15T23:33:19.517Z,36.70
2023-03-15T23:35:48.065Z,35.50
2023-03-15T23:38:16.688Z,36.90
2023-03-15T23:40:45.650Z,35.60
2023-03-15T23:43:14.465Z,30.30
2023-03-15T23:45:43.022Z,34.10
2023-03-15T23:48:12.740Z,33.50
2023-03-15T23:50:44.758Z,33.40
2023-03-15T23:53:13.274Z,33.00
2023-03-15T23:55:41.847Z,33.40
2023-03-15T23:58:10.687Z,33.20
